createdAt,value
2022-11-20T00:00:55.907Z,4.87
2022-11-20T00:03:28.712Z,4.85
2022-11-20T00:06:11.674Z,4.81
2022-11-20T00:08:39.382Z,4.85
2022-11-20T00:13:55.674Z,4.83
2022-11-20T00:16:25.329Z,4.79
2022-11-20T00:18:55.109Z,4.72
2022-11-20T00:21:32.157Z,4.64
2022-11-20T00:24:08.384Z,4.59
2022-11-20T00:26:38.713Z,4.56
2022-11-20T00:29:14.979Z,4.50
2022-11-20T00:34:41.454Z,4.55
2022-11-20T00:37:15.662Z,4.53
2022-11-20T00:40:11.691Z,4.54
2022-11-20T00:42:54.855Z,4.56
2022-11-20T00:45:23.521Z,4.59
2022-11-20T00:47:53.118Z,4.55
2022-11-20T00:50:28.245Z,4.53
2022-11-20T00:53:06.142Z,4.56
2022-11-20T00:55:42.585Z,4.56
2022-11-20T00:58:15.922Z,4.49
2022-11-20T01:00:48.010Z,4.42
2022-11-20T01:03:26.965Z,4.36
2022-11-20T01:06:21.133Z,4.28
2022-11-20T01:08:58.226Z,4.17
2022-11-20T01:11:31.549Z,4.18
2022-11-20T01:14:07.734Z,4.18
2022-11-20T01:16:39.080Z,4.25
2022-11-20T01:19:18.123Z,4.30
2022-11-20T01:21:47.850Z,4.36
2022-11-20T01:24:17.395Z,4.37
2022-11-20T01:26:49.902Z,4.38
2022-11-20T01:29:21.192Z,4.40
2022-11-20T01:31:50.441Z,4.41
2022-11-20T01:34:20.470Z,4.39
2022-11-20T01:36:48.432Z,4.35
2022-11-20T01:39:19.326Z,4.30
2022-11-20T01:42:10.314Z,4.27
2022-11-20T01:44:44.847Z,4.27
2022-11-20T01:47:17.969Z,4.28
2022-11-20T01:49:59.636Z,4.23
2022-11-20T01:52:36.410Z,4.14
2022-11-20T01:55:15.197Z,4.09
2022-11-20T01:57:49.990Z,4.10
2022-11-20T02:00:20.033Z,4.12
2022-11-20T02:03:03.038Z,4.11
2022-11-20T02:05:34.663Z,4.07
2022-11-20T02:08:04.943Z,4.08
2022-11-20T02:10:35.488Z,4.04
2022-11-20T02:13:25.203Z,4.04
2022-11-20T02:15:53.740Z,4.04
2022-11-20T02:18:22.726Z,4.03
2022-11-20T02:21:00.573Z,3.95
2022-11-20T02:23:34.934Z,3.94
2022-11-20T02:26:09.162Z,3.96
2022-11-20T02:28:41.582Z,3.89
2022-11-20T02:31:12.912Z,3.89
2022-11-20T02:33:41.516Z,3.86
2022-11-20T02:36:13.124Z,3.89
2022-11-20T02:38:41.782Z,3.94
2022-11-20T02:41:09.915Z,3.95
2022-11-20T02:43:38.437Z,3.93
2022-11-20T02:46:08.749Z,3.90
2022-11-20T02:48:38.207Z,3.89
2022-11-20T02:51:07.840Z,3.86
2022-11-20T02:53:36.847Z,3.77
2022-11-20T02:56:05.107Z,3.69
2022-11-20T02:58:33.330Z,3.63
2022-11-20T03:01:01.965Z,3.64
2022-11-20T03:03:30.395Z,3.69
2022-11-20T03:06:00.408Z,3.69
2022-11-20T03:08:29.819Z,3.69
2022-11-20T03:11:07.720Z,3.67
2022-11-20T03:13:36.587Z,3.67
2022-11-20T03:16:12.859Z,3.68
2022-11-20T03:18:42.181Z,3.67
2022-11-20T03:21:13.602Z,3.65
2022-11-20T03:23:42.989Z,3.67
2022-11-20T03:26:13.820Z,3.64
2022-11-20T03:28:44.192Z,3.60
2022-11-20T03:34:02.073Z,3.57
2022-11-20T03:36:31.063Z,3.55
2022-11-20T03:38:59.400Z,3.55
2022-11-20T03:41:30.080Z,3.58
2022-11-20T03:44:01.119Z,3.58
2022-11-20T03:46:30.426Z,3.56
2022-11-20T03:49:00.161Z,3.57
2022-11-20T03:51:37.938Z,3.53
2022-11-20T03:54:08.306Z,3.52
2022-11-20T03:56:40.585Z,3.52
2022-11-20T03:59:33.486Z,3.54
2022-11-20T04:02:03.564Z,3.52
2022-11-20T04:04:31.272Z,3.48
2022-11-20T04:06:59.137Z,3.52
2022-11-20T04:09:26.831Z,3.51
2022-11-20T04:12:01.995Z,3.49
2022-11-20T04:14:31.851Z,3.47
2022-11-20T04:16:59.646Z,3.38
2022-11-20T04:19:28.618Z,3.38
2022-11-20T04:21:56.198Z,3.34
2022-11-20T04:24:24.478Z,3.32
2022-11-20T04:26:52.450Z,3.35
2022-11-20T04:29:20.336Z,3.32
2022-11-20T04:31:48.552Z,3.35
2022-11-20T04:34:18.537Z,3.39
2022-11-20T04:36:46.473Z,3.42
2022-11-20T04:39:15.920Z,3.40
2022-11-20T04:41:43.931Z,3.32
2022-11-20T04:44:11.750Z,3.31
2022-11-20T04:49:35.201Z,3.30
2022-11-20T04:52:04.321Z,3.25
2022-11-20T04:54:32.578Z,3.28
2022-11-20T04:57:01.145Z,3.26
2022-11-20T04:59:32.231Z,3.22
2022-11-20T05:02:05.124Z,3.19
2022-11-20T05:04:36.745Z,3.12
2022-11-20T05:07:14.466Z,2.97
2022-11-20T05:09:45.779Z,2.88
2022-11-20T05:12:21.528Z,2.64
2022-11-20T05:15:12.391Z,2.65
2022-11-20T05:17:51.177Z,2.53
2022-11-20T05:20:23.523Z,2.43
2022-11-20T05:22:51.311Z,2.49
2022-11-20T05:25:25.354Z,2.47
2022-11-20T05:27:57.405Z,2.47
2022-11-20T05:33:24.380Z,2.50
2022-11-20T05:36:08.028Z,2.46
2022-11-20T05:39:01.803Z,2.52
2022-11-20T05:41:39.963Z,2.48
2022-11-20T05:44:44.384Z,2.44
2022-11-20T05:47:13.405Z,2.44
2022-11-20T05:50:10.998Z,2.48
2022-11-20T05:56:21.539Z,2.49
2022-11-20T05:59:00.561Z,2.48
2022-11-20T06:43:31.193Z,2.57
2022-11-20T06:46:00.173Z,2.56
2022-11-20T06:48:30.283Z,2.66
2022-11-20T06:51:00.664Z,2.75
2022-11-20T06:53:29.412Z,2.75
2022-11-20T06:55:59.163Z,2.80
2022-11-20T06:58:31.717Z,2.75
2022-11-20T07:04:09.630Z,2.80
2022-11-20T07:06:44.100Z,2.77
2022-11-20T07:09:16.043Z,2.67
2022-11-20T07:11:54.048Z,2.73
2022-11-20T07:14:57.659Z,2.75
2022-11-20T07:17:25.932Z,2.71
2022-11-20T07:19:56.238Z,2.69
2022-11-20T07:22:23.873Z,2.74
2022-11-20T07:24:51.450Z,2.77
2022-11-20T07:27:19.031Z,2.77
2022-11-20T07:32:34.514Z,2.78
2022-11-20T07:35:02.013Z,2.80
2022-11-20T07:37:36.234Z,2.81
2022-11-20T07:40:18.438Z,2.79
2022-11-20T07:42:51.225Z,2.82
2022-11-20T07:45:50.453Z,2.89
2022-11-20T07:48:20.014Z,2.94
2022-11-20T07:50:49.985Z,2.94
2022-11-20T07:53:21.792Z,2.97
2022-11-20T07:56:02.038Z,3.00
2022-11-20T07:58:49.937Z,3.02
2022-11-20T08:01:30.754Z,3.08
2022-11-20T08:04:14.365Z,3.11
2022-11-20T08:06:50.750Z,3.13
2022-11-20T08:09:27.617Z,3.16
2022-11-20T08:13:01.968Z,3.14
2022-11-20T08:15:40.553Z,3.15
2022-11-20T08:18:30.650Z,3.27
2022-11-20T08:21:12.572Z,3.29
2022-11-20T08:26:58.124Z,3.19
2022-11-20T08:29:33.690Z,3.21
2022-11-20T08:35:07.233Z,3.30
2022-11-20T08:37:50.518Z,3.28
2022-11-20T08:40:22.499Z,3.31
2022-11-20T08:43:08.932Z,3.31
2022-11-20T08:45:39.124Z,3.27
2022-11-20T08:48:17.821Z,3.27
2022-11-20T08:51:09.757Z,3.29
2022-11-20T09:07:50.625Z,3.30
2022-11-20T09:10:28.961Z,3.26
2022-11-20T09:13:09.538Z,3.31
2022-11-20T09:19:36.087Z,3.29
2022-11-20T11:45:41.085Z,3.22
2022-11-20T11:48:10.836Z,3.22
2022-11-20T11:53:58.082Z,3.19
2022-11-20T11:56:36.620Z,3.18
2022-11-20T12:03:01.109Z,3.12
2022-11-20T12:05:50.308Z,3.16
2022-11-20T12:08:34.183Z,3.18
2022-11-20T12:12:45.916Z,3.21
2022-11-20T14:39:25.474Z,3.46
2022-11-20T14:41:56.556Z,3.46
2022-11-20T14:44:38.819Z,3.45
2022-11-20T14:47:13.728Z,3.47
2022-11-20T14:49:42.131Z,3.50
2022-11-20T14:52:39.362Z,3.47
2022-11-20T14:55:07.050Z,3.53
2022-11-20T14:57:37.222Z,3.55
2022-11-20T15:00:13.897Z,3.57
2022-11-20T15:02:46.340Z,3.50
2022-11-20T15:05:14.941Z,3.57
2022-11-20T15:07:47.920Z,3.59
2022-11-20T15:10:24.031Z,3.59
2022-11-20T15:13:09.742Z,3.54
2022-11-20T15:15:49.375Z,3.60
2022-11-20T15:18:19.319Z,3.62
2022-11-20T15:20:47.110Z,3.66
2022-11-20T15:23:16.898Z,3.65
2022-11-20T15:25:44.426Z,3.61
2022-11-20T15:28:26.449Z,3.62
2022-11-20T15:30:55.442Z,3.61
2022-11-20T15:33:22.706Z,3.62
2022-11-20T15:35:50.486Z,3.63
2022-11-20T15:38:17.829Z,3.65
2022-11-20T15:40:45.213Z,3.66
2022-11-20T15:43:13.834Z,3.69
2022-11-20T15:45:49.200Z,3.68
2022-11-20T15:48:40.103Z,3.72
2022-11-20T15:51:12.768Z,3.75
2022-11-20T15:53:42.451Z,3.77
2022-11-20T15:56:14.605Z,3.81
2022-11-20T15:58:42.399Z,3.82
2022-11-20T16:01:14.773Z,3.85
2022-11-20T16:03:43.373Z,3.86
2022-11-20T16:06:11.271Z,3.87
2022-11-20T16:08:39.679Z,3.87
2022-11-20T16:11:17.315Z,3.90
2022-11-20T16:14:04.040Z,3.90
2022-11-20T16:16:36.626Z,3.95
2022-11-20T16:19:05.339Z,3.93
2022-11-20T16:21:33.143Z,3.97
2022-11-20T16:24:05.421Z,3.99
2022-11-20T16:26:33.371Z,4.04
2022-11-20T16:29:01.646Z,4.08
2022-11-20T16:31:29.847Z,4.06
2022-11-20T16:33:58.815Z,4.04
2022-11-20T16:36:28.460Z,4.02
2022-11-20T16:38:58.086Z,4.04
2022-11-20T16:41:31.874Z,4.08
2022-11-20T16:44:01.188Z,4.08
2022-11-20T16:46:30.760Z,4.03
2022-11-20T16:49:00.699Z,4.02
2022-11-20T16:51:29.797Z,4.02
2022-11-20T16:53:58.230Z,4.03
2022-11-20T16:56:27.602Z,4.05
2022-11-20T16:58:58.295Z,4.00
2022-11-20T17:01:28.643Z,4.03
2022-11-20T17:04:01.505Z,4.06
2022-11-20T17:06:31.789Z,4.07
2022-11-20T17:09:04.296Z,4.07
2022-11-20T17:11:33.560Z,4.12
2022-11-20T17:14:02.475Z,4.11
2022-11-20T17:16:31.601Z,4.06
2022-11-20T17:19:03.228Z,4.12
2022-11-20T17:21:38.265Z,4.16
2022-11-20T17:24:11.869Z,4.19
2022-11-20T17:26:41.193Z,4.25
2022-11-20T17:29:14.607Z,4.28
2022-11-20T17:31:42.325Z,4.29
2022-11-20T17:34:15.362Z,4.31
2022-11-20T17:36:46.962Z,4.34
2022-11-20T17:39:15.586Z,4.35
2022-11-20T17:41:43.395Z,4.38
2022-11-20T17:44:11.777Z,4.40
2022-11-20T17:46:39.527Z,4.41
2022-11-20T17:49:09.072Z,4.43
2022-11-20T17:51:37.078Z,4.49
2022-11-20T17:54:07.360Z,4.50
2022-11-20T17:56:55.546Z,4.55
2022-11-20T17:59:23.114Z,4.58
2022-11-20T18:01:51.584Z,4.62
2022-11-20T18:04:19.213Z,4.64
2022-11-20T18:06:47.900Z,4.69
2022-11-20T18:09:15.392Z,4.72
2022-11-20T18:11:43.765Z,4.75
2022-11-20T18:14:36.540Z,4.80
2022-11-20T18:17:13.732Z,4.84
2022-11-20T18:20:00.688Z,4.88
2022-11-20T18:22:32.269Z,4.91
2022-11-20T18:25:00.737Z,4.93
2022-11-20T18:27:28.132Z,4.94
2022-11-20T18:29:55.388Z,4.98
2022-11-20T18:32:22.830Z,5.03
2022-11-20T18:34:50.593Z,5.06
2022-11-20T18:37:19.178Z,5.13
2022-11-20T18:39:49.673Z,5.14
2022-11-20T18:42:36.144Z,5.18
2022-11-20T18:45:07.879Z,5.21
2022-11-20T18:47:38.111Z,5.23
2022-11-20T18:50:07.154Z,5.30
2022-11-20T18:52:39.097Z,5.30
2022-11-20T18:55:07.484Z,5.36
2022-11-20T18:57:34.863Z,5.39
2022-11-20T19:00:09.426Z,5.44
2022-11-20T19:02:41.526Z,5.43
2022-11-20T19:05:14.769Z,5.46
2022-11-20T19:07:45.213Z,5.48
2022-11-20T19:10:20.323Z,5.50
2022-11-20T19:12:49.264Z,5.54
2022-11-20T19:15:16.656Z,5.55
2022-11-20T19:17:48.624Z,5.60
2022-11-20T19:20:19.060Z,5.63
2022-11-20T19:22:50.607Z,5.66
2022-11-20T19:25:27.588Z,5.71
2022-11-20T19:27:55.273Z,5.73
2022-11-20T19:30:25.341Z,5.76
2022-11-20T19:32:52.821Z,5.80
2022-11-20T19:35:24.778Z,5.83
2022-11-20T19:37:52.119Z,5.89
2022-11-20T19:40:23.903Z,5.90
2022-11-20T19:42:54.134Z,5.95
2022-11-20T19:45:23.897Z,5.97
2022-11-20T19:48:07.560Z,5.98
2022-11-20T19:50:36.968Z,6.03
2022-11-20T19:53:17.854Z,6.04
2022-11-20T19:56:18.378Z,6.08
2022-11-20T19:58:45.845Z,6.06
2022-11-20T20:01:24.394Z,6.06
2022-11-20T20:03:55.694Z,6.09
2022-11-20T20:06:26.895Z,6.07
2022-11-20T20:08:58.345Z,6.05
2022-11-20T20:11:38.992Z,6.07
2022-11-20T20:14:08.699Z,6.08
2022-11-20T20:16:39.066Z,6.10
2022-11-20T20:19:13.823Z,6.10
2022-11-20T20:21:45.170Z,6.10
2022-11-20T20:24:13.011Z,6.15
2022-11-20T20:26:44.044Z,6.19
2022-11-20T20:29:11.215Z,6.22
2022-11-20T20:31:38.481Z,6.23
2022-11-20T20:34:06.063Z,6.24
2022-11-20T20:36:38.344Z,6.24
2022-11-20T20:39:06.503Z,6.23
2022-11-20T20:41:34.100Z,6.29
2022-11-20T20:44:23.044Z,6.32
2022-11-20T20:46:54.365Z,6.35
2022-11-20T20:49:24.727Z,6.40
2022-11-20T20:51:52.159Z,6.44
2022-11-20T20:54:22.513Z,6.45
2022-11-20T20:56:51.543Z,6.45
2022-11-20T20:59:19.051Z,6.45
2022-11-20T21:01:46.663Z,6.44
2022-11-20T21:04:14.356Z,6.43
2022-11-20T21:06:41.736Z,6.42
2022-11-20T21:09:09.291Z,6.43
2022-11-20T21:11:36.748Z,6.43
2022-11-20T21:14:04.013Z,6.44
2022-11-20T21:16:40.983Z,6.45
2022-11-20T21:19:08.674Z,6.46
2022-11-20T21:21:54.615Z,6.49
2022-11-20T21:24:34.905Z,6.52
2022-11-20T21:27:08.434Z,6.50
2022-11-20T21:29:38.537Z,6.49
2022-11-20T21:32:05.974Z,6.49
2022-11-20T21:34:35.004Z,6.49
2022-11-20T21:37:02.373Z,6.49
2022-11-20T21:39:50.606Z,6.51
2022-11-20T21:42:17.934Z,6.53
2022-11-20T21:44:46.547Z,6.53
2022-11-20T21:47:19.861Z,6.54
2022-11-20T21:49:47.103Z,6.56
2022-11-20T21:52:14.340Z,6.58
2022-11-20T21:54:41.999Z,6.60
2022-11-20T21:57:09.433Z,6.59
2022-11-20T21:59:40.258Z,6.60
2022-11-20T22:02:08.056Z,6.64
2022-11-20T22:04:35.322Z,6.65
2022-11-20T22:07:02.646Z,6.65
2022-11-20T22:09:30.088Z,6.67
2022-11-20T22:11:57.377Z,6.67
2022-11-20T22:14:25.656Z,6.69
2022-11-20T22:16:53.802Z,6.71
2022-11-20T22:19:22.618Z,6.73
2022-11-20T22:21:51.101Z,6.75
2022-11-20T22:24:20.633Z,6.75
2022-11-20T22:26:48.530Z,6.77
2022-11-20T22:29:18.141Z,6.80
2022-11-20T22:31:53.348Z,6.81
2022-11-20T22:34:20.865Z,6.80
2022-11-20T22:36:49.064Z,6.84
2022-11-20T22:39:16.334Z,6.86
2022-11-20T22:41:43.602Z,6.88
2022-11-20T22:44:13.364Z,6.88
2022-11-20T22:46:40.579Z,6.90
2022-11-20T22:49:08.948Z,6.90
2022-11-20T22:51:39.582Z,6.91
2022-11-20T22:54:07.580Z,6.93
2022-11-20T22:56:35.441Z,6.94
2022-11-20T22:59:03.118Z,6.94
2022-11-20T23:01:36.779Z,6.96
2022-11-20T23:04:10.398Z,6.98
2022-11-20T23:06:38.207Z,6.97
2022-11-20T23:09:06.706Z,6.98
2022-11-20T23:11:35.201Z,7.02
2022-11-20T23:14:13.952Z,7.02
2022-11-20T23:16:46.260Z,7.08
2022-11-20T23:19:15.358Z,7.07
2022-11-20T23:21:43.841Z,7.12
2022-11-20T23:24:11.754Z,7.13
2022-11-20T23:26:39.983Z,7.15
2022-11-20T23:29:07.690Z,7.20
2022-11-20T23:31:37.784Z,7.19
2022-11-20T23:34:05.333Z,7.24
2022-11-20T23:36:33.022Z,7.25
2022-11-20T23:39:00.302Z,7.27
2022-11-20T23:41:27.590Z,7.31
2022-11-20T23:43:55.022Z,7.32
2022-11-20T23:46:22.332Z,7.37
2022-11-20T23:48:49.600Z,7.39
2022-11-20T23:51:18.110Z,7.39
2022-11-20T23:53:46.060Z,7.45
2022-11-20T23:56:14.732Z,7.48
2022-11-20T23:58:42.968Z,7.53
